createdAt,value
2018-10-09T00:00:03.890Z,1015.45
2018-10-09T00:00:30.019Z,1015.43
2018-10-09T00:00:56.242Z,1015.42
2018-10-09T00:01:22.299Z,1015.4
2018-10-09T00:01:48.428Z,1015.41
2018-10-09T00:02:14.581Z,1015.43
2018-10-09T00:02:40.725Z,1015.39
2018-10-09T00:03:06.857Z,1015.41
2018-10-09T00:03:32.991Z,1015.42
2018-10-09T00:03:59.116Z,1015.41
2018-10-09T00:04:25.289Z,1015.39
2018-10-09T00:04:51.396Z,1015.43
2018-10-09T00:05:17.526Z,1015.42
2018-10-09T00:05:43.656Z,1015.44
2018-10-09T00:06:09.783Z,1015.39
2018-10-09T00:06:35.910Z,1015.39
2018-10-09T00:07:02.035Z,1015.39
2018-10-09T00:07:28.167Z,1015.37
2018-10-09T00:07:54.316Z,1015.35
2018-10-09T00:08:20.444Z,1015.34
2018-10-09T00:08:46.600Z,1015.32
2018-10-09T00:09:12.723Z,1015.33
2018-10-09T00:09:38.880Z,1015.29
2018-10-09T00:10:05.006Z,1015.29
2018-10-09T00:10:31.142Z,1015.28
2018-10-09T00:10:57.265Z,1015.26
2018-10-09T00:11:23.390Z,1015.25
2018-10-09T00:11:49.524Z,1015.22
2018-10-09T00:12:15.655Z,1015.19
2018-10-09T00:12:41.779Z,1015.21
2018-10-09T00:13:07.912Z,1015.21
2018-10-09T00:13:34.041Z,1015.18
2018-10-09T00:14:00.160Z,1015.21
2018-10-09T00:14:26.290Z,1015.2
2018-10-09T00:14:52.414Z,1015.19
2018-10-09T00:15:18.570Z,1015.19
2018-10-09T00:15:44.700Z,1015.17
2018-10-09T00:16:10.830Z,1015.16
2018-10-09T00:16:36.957Z,1015.16
2018-10-09T00:17:03.084Z,1015.15
2018-10-09T00:17:29.220Z,1015.13
2018-10-09T00:17:55.367Z,1015.11
2018-10-09T00:18:21.497Z,1015.15
2018-10-09T00:18:47.645Z,1015.13
2018-10-09T00:19:13.798Z,1015.16
2018-10-09T00:19:39.937Z,1015.15
2018-10-09T00:20:06.064Z,1015.14
2018-10-09T00:20:32.192Z,1015.15
2018-10-09T00:20:58.325Z,1015.12
2018-10-09T00:21:24.456Z,1015.12
2018-10-09T00:21:50.578Z,1015.15
2018-10-09T00:22:16.733Z,1015.14
2018-10-09T00:22:42.856Z,1015.14
2018-10-09T00:23:09.011Z,1015.13
2018-10-09T00:23:35.143Z,1015.22
2018-10-09T00:24:01.317Z,1015.24
2018-10-09T00:24:27.448Z,1015.28
2018-10-09T00:24:53.598Z,1015.26
2018-10-09T00:25:19.758Z,1015.26
2018-10-09T00:25:45.889Z,1015.32
2018-10-09T00:26:12.108Z,1015.3
2018-10-09T00:26:38.140Z,1015.35
2018-10-09T00:27:04.289Z,1015.35
2018-10-09T00:27:30.439Z,1015.36
2018-10-09T00:27:56.569Z,1015.37
2018-10-09T00:28:22.721Z,1015.36
2018-10-09T00:28:48.849Z,1015.37
2018-10-09T00:29:14.972Z,1015.34
2018-10-09T00:29:41.101Z,1015.34
2018-10-09T00:30:07.232Z,1015.35
2018-10-09T00:30:33.360Z,1015.35
2018-10-09T00:30:59.488Z,1015.32
2018-10-09T00:31:25.616Z,1015.32
2018-10-09T00:31:51.747Z,1015.3
2018-10-09T00:32:17.882Z,1015.32
2018-10-09T00:32:44.009Z,1015.31
2018-10-09T00:33:10.132Z,1015.33
2018-10-09T00:33:36.273Z,1015.32
2018-10-09T00:34:02.405Z,1015.31
2018-10-09T00:34:28.529Z,1015.37
2018-10-09T00:34:54.686Z,1015.35
2018-10-09T00:35:20.817Z,1015.38
2018-10-09T00:35:46.938Z,1015.37
2018-10-09T00:36:13.066Z,1015.41
2018-10-09T00:36:39.219Z,1015.42
2018-10-09T00:37:05.347Z,1015.41
2018-10-09T00:37:31.482Z,1015.38
2018-10-09T00:37:57.612Z,1015.37
2018-10-09T00:38:23.743Z,1015.4
2018-10-09T00:38:49.874Z,1015.41
2018-10-09T00:39:15.997Z,1015.39
2018-10-09T00:39:42.146Z,1015.42
2018-10-09T00:40:08.272Z,1015.41
2018-10-09T00:40:34.427Z,1015.39
2018-10-09T00:41:00.557Z,1015.41
2018-10-09T00:41:26.710Z,1015.41
2018-10-09T00:41:52.845Z,1015.4
2018-10-09T00:42:25.256Z,1015.4
2018-10-09T00:42:51.385Z,1015.39
2018-10-09T00:43:17.506Z,1015.43
2018-10-09T00:43:43.655Z,1015.37
2018-10-09T00:44:09.784Z,1015.4
2018-10-09T00:44:35.930Z,1015.4
2018-10-09T00:45:02.090Z,1015.43
2018-10-09T00:45:28.214Z,1015.43
2018-10-09T00:45:54.346Z,1015.39
2018-10-09T00:46:20.467Z,1015.41
2018-10-09T00:46:46.622Z,1015.41
2018-10-09T00:47:12.745Z,1015.46
2018-10-09T00:47:38.885Z,1015.42
2018-10-09T00:48:05.010Z,1015.43
2018-10-09T00:48:31.140Z,1015.44
2018-10-09T00:48:57.268Z,1015.44
2018-10-09T00:49:23.397Z,1015.41
2018-10-09T00:49:49.526Z,1015.42
2018-10-09T00:50:15.670Z,1015.42
2018-10-09T00:50:41.804Z,1015.4
2018-10-09T00:51:07.951Z,1015.41
2018-10-09T00:51:34.106Z,1015.41
2018-10-09T00:52:00.251Z,1015.41
2018-10-09T00:52:26.389Z,1015.41
2018-10-09T00:52:52.511Z,1015.4
2018-10-09T00:53:18.663Z,1015.43
2018-10-09T00:53:44.811Z,1015.39
2018-10-09T00:54:10.941Z,1015.38
2018-10-09T00:54:37.098Z,1015.43
2018-10-09T00:55:03.235Z,1015.4
2018-10-09T00:55:29.366Z,1015.39
2018-10-09T00:55:55.497Z,1015.41
2018-10-09T00:56:21.620Z,1015.4
2018-10-09T00:56:47.757Z,1015.43
2018-10-09T00:57:13.906Z,1015.44
2018-10-09T00:57:40.036Z,1015.44
2018-10-09T00:58:06.183Z,1015.43
2018-10-09T00:58:32.319Z,1015.46
2018-10-09T00:58:58.445Z,1015.43
2018-10-09T00:59:24.597Z,1015.47
2018-10-09T00:59:50.718Z,1015.46
2018-10-09T01:00:16.846Z,1015.47
2018-10-09T01:00:42.974Z,1015.52
2018-10-09T01:01:09.103Z,1015.48
2018-10-09T01:01:35.277Z,1015.51
2018-10-09T01:02:01.406Z,1015.48
2018-10-09T01:02:27.544Z,1015.51
2018-10-09T01:02:53.672Z,1015.54
2018-10-09T01:03:19.796Z,1015.5
2018-10-09T01:03:45.918Z,1015.51
2018-10-09T01:04:12.071Z,1015.53
2018-10-09T01:04:38.217Z,1015.53
2018-10-09T01:05:04.352Z,1015.49
2018-10-09T01:05:30.503Z,1015.49
2018-10-09T01:05:56.653Z,1015.53
2018-10-09T01:06:22.778Z,1015.5
2018-10-09T01:06:48.911Z,1015.5
2018-10-09T01:07:15.062Z,1015.49
2018-10-09T01:07:41.249Z,1015.46
2018-10-09T01:08:07.376Z,1015.47
2018-10-09T01:08:33.507Z,1015.49
2018-10-09T01:08:59.644Z,1015.51
2018-10-09T01:09:25.775Z,1015.51
2018-10-09T01:09:51.899Z,1015.48
2018-10-09T01:10:18.052Z,1015.53
2018-10-09T01:10:44.184Z,1015.51
2018-10-09T01:11:10.343Z,1015.51
2018-10-09T01:11:36.492Z,1015.51
2018-10-09T01:12:02.651Z,1015.52
2018-10-09T01:12:28.779Z,1015.52
2018-10-09T01:12:54.932Z,1015.5
2018-10-09T01:13:21.080Z,1015.52
2018-10-09T01:13:47.223Z,1015.54
2018-10-09T01:14:13.381Z,1015.52
2018-10-09T01:14:39.512Z,1015.55
2018-10-09T01:15:05.638Z,1015.57
2018-10-09T01:15:31.763Z,1015.58
2018-10-09T01:15:57.909Z,1015.56
2018-10-09T01:16:24.042Z,1015.56
2018-10-09T01:16:50.175Z,1015.57
2018-10-09T01:17:16.294Z,1015.6
2018-10-09T01:17:42.424Z,1015.6
2018-10-09T01:18:08.552Z,1015.63
2018-10-09T01:18:34.683Z,1015.67
2018-10-09T01:19:00.814Z,1015.64
2018-10-09T01:19:26.943Z,1015.67
2018-10-09T01:19:53.067Z,1015.65
2018-10-09T01:20:19.193Z,1015.68
2018-10-09T01:20:45.345Z,1015.64
2018-10-09T01:21:11.500Z,1015.6
2018-10-09T01:21:37.630Z,1015.66
2018-10-09T01:22:03.764Z,1015.63
2018-10-09T01:22:29.888Z,1015.63
2018-10-09T01:22:56.041Z,1015.63
2018-10-09T01:23:22.160Z,1015.64
2018-10-09T01:23:48.296Z,1015.62
2018-10-09T01:24:14.424Z,1015.61
2018-10-09T01:24:40.565Z,1015.64
2018-10-09T01:25:06.698Z,1015.62
2018-10-09T01:25:32.829Z,1015.63
2018-10-09T01:25:58.959Z,1015.65
2018-10-09T01:26:25.082Z,1015.65
2018-10-09T01:26:51.215Z,1015.65
2018-10-09T01:27:17.369Z,1015.67
2018-10-09T01:27:43.499Z,1015.67
2018-10-09T01:28:09.629Z,1015.63
2018-10-09T01:28:35.754Z,1015.65
2018-10-09T01:29:01.888Z,1015.66
2018-10-09T01:29:28.041Z,1015.7
2018-10-09T01:29:54.171Z,1015.7
2018-10-09T01:30:20.299Z,1015.68
2018-10-09T01:30:46.424Z,1015.7
2018-10-09T01:31:12.578Z,1015.69
2018-10-09T01:31:38.704Z,1015.69
2018-10-09T01:32:04.834Z,1015.69
2018-10-09T01:32:30.958Z,1015.69
2018-10-09T01:32:57.108Z,1015.69
2018-10-09T01:33:23.255Z,1015.67
2018-10-09T01:33:49.385Z,1015.63
2018-10-09T01:34:15.515Z,1015.62
2018-10-09T01:34:41.642Z,1015.63
2018-10-09T01:35:07.797Z,1015.63
2018-10-09T01:35:33.943Z,1015.65
2018-10-09T01:36:00.116Z,1015.56
2018-10-09T01:36:26.249Z,1015.56
2018-10-09T01:36:52.373Z,1015.55
2018-10-09T01:37:18.553Z,1015.53
2018-10-09T01:37:44.683Z,1015.55
2018-10-09T01:38:10.815Z,1015.57
2018-10-09T01:38:37.029Z,1015.59
2018-10-09T01:39:03.158Z,1015.6
2018-10-09T01:39:29.280Z,1015.65
2018-10-09T01:39:55.418Z,1015.6
2018-10-09T01:40:21.574Z,1015.61
2018-10-09T01:40:47.750Z,1015.6
2018-10-09T01:41:13.900Z,1015.65
2018-10-09T01:41:40.030Z,1015.63
2018-10-09T01:42:06.152Z,1015.64
2018-10-09T01:42:32.289Z,1015.62
2018-10-09T01:42:58.419Z,1015.62
2018-10-09T01:43:24.548Z,1015.62
2018-10-09T01:43:50.673Z,1015.61
2018-10-09T01:44:16.808Z,1015.59
2018-10-09T01:44:42.931Z,1015.56
2018-10-09T01:45:09.055Z,1015.59
2018-10-09T01:45:35.214Z,1015.57
2018-10-09T01:46:01.341Z,1015.59
2018-10-09T01:46:27.474Z,1015.56
2018-10-09T01:46:53.625Z,1015.56
2018-10-09T01:47:19.750Z,1015.57
2018-10-09T01:47:45.879Z,1015.56
2018-10-09T01:48:12.014Z,1015.53
2018-10-09T01:48:38.141Z,1015.56
2018-10-09T01:49:04.265Z,1015.54
2018-10-09T01:49:30.458Z,1015.55
2018-10-09T01:49:56.591Z,1015.56
2018-10-09T01:50:22.714Z,1015.57
2018-10-09T01:50:48.838Z,1015.55
2018-10-09T01:51:14.967Z,1015.51
2018-10-09T01:51:41.095Z,1015.53
2018-10-09T01:52:07.261Z,1015.54
2018-10-09T01:52:33.349Z,1015.49
2018-10-09T01:52:59.484Z,1015.52
2018-10-09T01:53:25.606Z,1015.53
2018-10-09T01:53:51.737Z,1015.53
2018-10-09T01:54:17.887Z,1015.54
2018-10-09T01:54:44.013Z,1015.51
2018-10-09T01:55:10.183Z,1015.52
2018-10-09T01:55:36.316Z,1015.51
2018-10-09T01:56:02.458Z,1015.53
2018-10-09T01:56:28.615Z,1015.5
2018-10-09T01:56:54.744Z,1015.47
2018-10-09T01:57:20.877Z,1015.5
2018-10-09T01:57:47.019Z,1015.5
2018-10-09T01:58:13.153Z,1015.48
2018-10-09T01:58:39.309Z,1015.45
2018-10-09T01:59:05.460Z,1015.46
2018-10-09T01:59:31.579Z,1015.46
2018-10-09T01:59:57.711Z,1015.47
2018-10-09T02:00:23.850Z,1015.5
2018-10-09T02:00:49.969Z,1015.47
2018-10-09T02:01:16.098Z,1015.47
2018-10-09T02:01:42.225Z,1015.44
2018-10-09T02:02:08.355Z,1015.47
2018-10-09T02:02:34.486Z,1015.46
2018-10-09T02:03:00.609Z,1015.46
2018-10-09T02:03:26.737Z,1015.46
2018-10-09T02:03:52.867Z,1015.5
2018-10-09T02:04:18.996Z,1015.48
2018-10-09T02:04:45.123Z,1015.48
2018-10-09T02:05:11.273Z,1015.48
2018-10-09T02:05:37.399Z,1015.44
2018-10-09T02:06:03.551Z,1015.4
2018-10-09T02:06:29.707Z,1015.43
2018-10-09T02:06:55.874Z,1015.44
2018-10-09T02:07:21.999Z,1015.42
2018-10-09T02:07:48.138Z,1015.39
2018-10-09T02:08:14.288Z,1015.36
2018-10-09T02:08:40.416Z,1015.34
2018-10-09T02:09:06.543Z,1015.3
2018-10-09T02:09:32.672Z,1015.3
2018-10-09T02:09:58.832Z,1015.27
2018-10-09T02:10:25.015Z,1015.25
2018-10-09T02:10:51.145Z,1015.25
2018-10-09T02:11:17.274Z,1015.23
2018-10-09T02:11:43.399Z,1015.23
2018-10-09T02:12:09.540Z,1015.24
2018-10-09T02:12:35.693Z,1015.24
2018-10-09T02:13:01.843Z,1015.23
2018-10-09T02:13:27.965Z,1015.24
2018-10-09T02:13:54.097Z,1015.28
2018-10-09T02:14:20.224Z,1015.26
2018-10-09T02:14:46.349Z,1015.3
2018-10-09T02:15:12.492Z,1015.28
2018-10-09T02:15:38.642Z,1015.31
2018-10-09T02:16:04.770Z,1015.29
2018-10-09T02:16:30.901Z,1015.29
2018-10-09T02:16:57.027Z,1015.25
2018-10-09T02:17:23.177Z,1015.29
2018-10-09T02:17:49.303Z,1015.28
2018-10-09T02:18:15.433Z,1015.23
2018-10-09T02:18:41.560Z,1015.26
2018-10-09T02:19:07.687Z,1015.23
2018-10-09T02:19:33.817Z,1015.2
2018-10-09T02:19:59.941Z,1015.22
2018-10-09T02:20:26.094Z,1015.21
2018-10-09T02:20:52.225Z,1015.17
2018-10-09T02:21:18.359Z,1015.18
2018-10-09T02:21:44.484Z,1015.18
2018-10-09T02:22:10.611Z,1015.19
2018-10-09T02:22:36.739Z,1015.15
2018-10-09T02:23:02.873Z,1015.18
2018-10-09T02:23:29.070Z,1015.16
2018-10-09T02:23:55.156Z,1015.18
2018-10-09T02:24:21.298Z,1015.11
2018-10-09T02:24:47.469Z,1015.12
2018-10-09T02:25:13.591Z,1015.13
2018-10-09T02:25:39.727Z,1015.14
2018-10-09T02:26:05.850Z,1015.13
2018-10-09T02:26:31.979Z,1015.09
2018-10-09T02:26:58.104Z,1015.09
2018-10-09T02:27:24.227Z,1015.07
2018-10-09T02:27:50.399Z,1015.12
2018-10-09T02:28:16.552Z,1015.05
2018-10-09T02:28:42.679Z,1015.06
2018-10-09T02:29:08.805Z,1015.06
2018-10-09T02:29:34.939Z,1015.07
2018-10-09T02:30:01.094Z,1015.1
2018-10-09T02:30:27.242Z,1015.1
2018-10-09T02:30:53.430Z,1015.07
2018-10-09T02:31:19.554Z,1015.1
2018-10-09T02:31:45.712Z,1015.07
2018-10-09T02:32:11.885Z,1015.1
2018-10-09T02:32:38.007Z,1015.1
2018-10-09T02:33:04.160Z,1015.11
2018-10-09T02:33:30.423Z,1015.13
2018-10-09T02:33:56.509Z,1015.06
2018-10-09T02:34:22.635Z,1015.08
2018-10-09T02:34:48.760Z,1015.1
2018-10-09T02:35:14.892Z,1015.07
2018-10-09T02:35:41.015Z,1015.08
2018-10-09T02:36:07.160Z,1015.07
2018-10-09T02:36:33.292Z,1015.05
2018-10-09T02:36:59.416Z,1015.06
2018-10-09T02:37:25.553Z,1015.05
2018-10-09T02:37:51.694Z,1015.06
2018-10-09T02:38:17.873Z,1015.07
2018-10-09T02:38:44.020Z,1015.06
2018-10-09T02:39:10.167Z,1015.07
2018-10-09T02:39:36.338Z,1015.09
2018-10-09T02:40:02.489Z,1015.09
2018-10-09T02:40:28.614Z,1015.07
2018-10-09T02:40:54.774Z,1015.08
2018-10-09T02:41:20.899Z,1015.11
2018-10-09T02:41:47.022Z,1015.12
2018-10-09T02:42:13.181Z,1015.07
2018-10-09T02:42:39.325Z,1015.1
2018-10-09T02:43:05.460Z,1015.11
2018-10-09T02:43:31.599Z,1015.08
2018-10-09T02:43:57.751Z,1015.11
2018-10-09T02:44:23.897Z,1015.04
2018-10-09T02:44:50.032Z,1015.1
2018-10-09T02:45:16.177Z,1015.07
2018-10-09T02:45:42.326Z,1015.03
2018-10-09T02:46:08.472Z,1015.05
2018-10-09T02:46:34.618Z,1015.02
2018-10-09T02:47:00.774Z,1015
2018-10-09T02:47:26.897Z,1015.01
2018-10-09T02:47:53.028Z,1014.98
2018-10-09T02:48:19.162Z,1014.99
2018-10-09T02:48:45.282Z,1015
2018-10-09T02:49:11.418Z,1015.01
2018-10-09T02:49:37.543Z,1015.01
2018-10-09T02:50:03.667Z,1015
2018-10-09T02:50:29.827Z,1014.98
2018-10-09T02:50:55.947Z,1014.99
2018-10-09T02:51:22.070Z,1014.97
2018-10-09T02:51:48.222Z,1014.96
2018-10-09T02:52:14.351Z,1014.95
2018-10-09T02:52:40.483Z,1014.98
2018-10-09T02:53:06.609Z,1014.93
2018-10-09T02:53:32.751Z,1014.96
2018-10-09T02:53:58.931Z,1014.92
2018-10-09T02:54:25.058Z,1014.91
2018-10-09T02:54:51.192Z,1014.89
2018-10-09T02:55:17.314Z,1014.94
2018-10-09T02:55:43.461Z,1014.92
2018-10-09T02:56:09.591Z,1014.96
2018-10-09T02:56:35.721Z,1014.92
2018-10-09T02:57:01.895Z,1014.96
2018-10-09T02:57:28.059Z,1014.94
2018-10-09T02:57:54.213Z,1014.99
2018-10-09T02:58:20.362Z,1014.95
2018-10-09T02:58:46.494Z,1014.96
2018-10-09T02:59:12.624Z,1014.96
2018-10-09T02:59:38.794Z,1014.98
2018-10-09T03:00:04.923Z,1014.97
2018-10-09T03:00:31.050Z,1014.96
2018-10-09T03:00:57.206Z,1014.95
2018-10-09T03:01:23.355Z,1014.95
2018-10-09T03:01:49.478Z,1014.93
2018-10-09T03:02:15.624Z,1014.95
2018-10-09T03:02:41.781Z,1014.94
2018-10-09T03:03:07.933Z,1014.94
2018-10-09T03:03:34.062Z,1014.87
2018-10-09T03:04:00.190Z,1014.91
2018-10-09T03:04:26.364Z,1014.91
2018-10-09T03:04:52.497Z,1014.88
2018-10-09T03:05:18.618Z,1014.85
2018-10-09T03:05:44.753Z,1014.89
2018-10-09T03:06:10.876Z,1014.88
2018-10-09T03:06:37.026Z,1014.87
2018-10-09T03:07:03.148Z,1014.89
2018-10-09T03:07:29.273Z,1014.84
2018-10-09T03:07:55.432Z,1014.86
2018-10-09T03:08:21.624Z,1014.84
2018-10-09T03:08:47.691Z,1014.8
2018-10-09T03:09:13.822Z,1014.85
2018-10-09T03:09:39.989Z,1014.84
2018-10-09T03:10:06.140Z,1014.85
2018-10-09T03:10:32.289Z,1014.85
2018-10-09T03:10:58.448Z,1014.85
2018-10-09T03:11:24.567Z,1014.86
2018-10-09T03:11:50.692Z,1014.89
2018-10-09T03:12:16.827Z,1014.87
2018-10-09T03:12:42.995Z,1014.86
2018-10-09T03:13:09.123Z,1014.86
2018-10-09T03:13:35.248Z,1014.88
2018-10-09T03:14:01.373Z,1014.89
2018-10-09T03:14:27.497Z,1014.88
2018-10-09T03:14:53.651Z,1014.92
2018-10-09T03:15:19.812Z,1014.91
2018-10-09T03:15:45.938Z,1014.9
2018-10-09T03:16:12.069Z,1014.9
2018-10-09T03:16:38.193Z,1014.87
2018-10-09T03:17:04.320Z,1014.91
2018-10-09T03:17:30.452Z,1014.92
2018-10-09T03:17:56.592Z,1014.87
2018-10-09T03:18:22.727Z,1014.87
2018-10-09T03:18:48.859Z,1014.9
2018-10-09T03:19:14.974Z,1014.91
2018-10-09T03:19:41.107Z,1014.89
2018-10-09T03:20:07.239Z,1014.93
2018-10-09T03:20:33.419Z,1014.9
2018-10-09T03:20:59.572Z,1014.93
2018-10-09T03:21:25.700Z,1014.93
2018-10-09T03:21:51.830Z,1014.91
2018-10-09T03:22:17.956Z,1014.89
2018-10-09T03:22:44.083Z,1014.92
2018-10-09T03:23:10.214Z,1014.92
2018-10-09T03:23:36.365Z,1014.95
2018-10-09T03:24:02.497Z,1014.92
2018-10-09T03:24:28.623Z,1014.94
2018-10-09T03:24:54.751Z,1014.97
2018-10-09T03:25:20.880Z,1014.97
2018-10-09T03:25:47.016Z,1014.98
2018-10-09T03:26:13.142Z,1014.99
2018-10-09T03:26:39.263Z,1014.98
2018-10-09T03:27:05.398Z,1014.98
2018-10-09T03:27:31.552Z,1014.95
2018-10-09T03:27:57.696Z,1015
2018-10-09T03:28:23.820Z,1014.98
2018-10-09T03:28:50.005Z,1014.98
2018-10-09T03:29:16.123Z,1014.97
2018-10-09T03:29:42.251Z,1014.95
2018-10-09T03:30:08.384Z,1014.94
2018-10-09T03:30:34.567Z,1014.94
2018-10-09T03:31:00.701Z,1014.92
2018-10-09T03:31:26.862Z,1014.9
2018-10-09T03:31:53.032Z,1014.91
2018-10-09T03:32:19.186Z,1014.88
2018-10-09T03:32:45.328Z,1014.9
2018-10-09T03:33:11.474Z,1014.9
2018-10-09T03:33:37.641Z,1014.89
2018-10-09T03:34:03.793Z,1014.81
2018-10-09T03:34:29.967Z,1014.82
2018-10-09T03:34:56.091Z,1014.78
2018-10-09T03:35:22.220Z,1014.79
2018-10-09T03:35:48.347Z,1014.77
2018-10-09T03:36:14.500Z,1014.8
2018-10-09T03:36:40.654Z,1014.74
2018-10-09T03:37:06.796Z,1014.73
2018-10-09T03:37:32.960Z,1014.73
2018-10-09T03:37:59.083Z,1014.75
2018-10-09T03:38:25.212Z,1014.75
2018-10-09T03:38:51.339Z,1014.73
2018-10-09T03:39:17.463Z,1014.75
2018-10-09T03:39:43.606Z,1014.76
2018-10-09T03:40:09.729Z,1014.76
2018-10-09T03:40:35.873Z,1014.74
2018-10-09T03:41:02.005Z,1014.74
2018-10-09T03:41:28.130Z,1014.79
2018-10-09T03:41:54.257Z,1014.79
2018-10-09T03:42:20.384Z,1014.78
2018-10-09T03:42:46.510Z,1014.77
2018-10-09T03:43:12.634Z,1014.84
2018-10-09T03:43:38.790Z,1014.83
2018-10-09T03:44:04.923Z,1014.82
2018-10-09T03:44:31.075Z,1014.83
2018-10-09T03:44:57.199Z,1014.85
2018-10-09T03:45:23.348Z,1014.86
2018-10-09T03:45:49.479Z,1014.87
2018-10-09T03:46:15.633Z,1014.83
2018-10-09T03:46:41.735Z,1014.84
2018-10-09T03:47:07.859Z,1014.87
2018-10-09T03:47:33.998Z,1014.89
2018-10-09T03:48:00.149Z,1014.88
2018-10-09T03:48:26.273Z,1014.9
2018-10-09T03:48:52.401Z,1014.92
2018-10-09T03:49:18.533Z,1014.92
2018-10-09T03:49:44.665Z,1014.95
2018-10-09T03:50:10.815Z,1014.95
2018-10-09T03:50:36.966Z,1014.9
2018-10-09T03:51:03.103Z,1014.94
2018-10-09T03:51:29.217Z,1014.97
2018-10-09T03:51:55.364Z,1014.95
2018-10-09T03:52:21.490Z,1014.97
2018-10-09T03:52:47.633Z,1014.95
2018-10-09T03:53:13.775Z,1014.97
2018-10-09T03:53:39.904Z,1014.98
2018-10-09T03:54:06.053Z,1014.98
2018-10-09T03:54:32.178Z,1014.98
2018-10-09T03:54:58.304Z,1014.98
2018-10-09T03:55:24.436Z,1015
2018-10-09T03:55:50.563Z,1014.99
2018-10-09T03:56:16.683Z,1014.95
2018-10-09T03:56:42.812Z,1014.98
2018-10-09T03:57:08.941Z,1014.96
2018-10-09T03:57:35.068Z,1014.92
2018-10-09T03:58:01.188Z,1014.94
2018-10-09T03:58:27.318Z,1014.95
2018-10-09T03:58:53.461Z,1014.89
2018-10-09T03:59:19.589Z,1014.9
2018-10-09T03:59:45.717Z,1014.89
2018-10-09T04:00:11.843Z,1014.91
2018-10-09T04:00:37.976Z,1014.89
2018-10-09T04:01:04.124Z,1014.9
2018-10-09T04:01:30.273Z,1014.88
2018-10-09T04:01:56.396Z,1014.88
2018-10-09T04:02:22.518Z,1014.88
2018-10-09T04:02:48.650Z,1014.93
2018-10-09T04:03:14.779Z,1014.9
2018-10-09T04:03:40.908Z,1014.9
2018-10-09T04:04:07.058Z,1014.91
2018-10-09T04:04:33.182Z,1014.91
2018-10-09T04:04:59.316Z,1014.88
2018-10-09T04:05:25.466Z,1014.87
2018-10-09T04:05:51.595Z,1014.9
2018-10-09T04:06:17.725Z,1014.88
2018-10-09T04:06:43.849Z,1014.89
2018-10-09T04:07:09.999Z,1014.88
2018-10-09T04:07:36.136Z,1014.88
2018-10-09T04:08:02.263Z,1014.89
2018-10-09T04:08:28.434Z,1014.89
2018-10-09T04:08:54.631Z,1014.87
2018-10-09T04:09:20.738Z,1014.88
2018-10-09T04:09:46.865Z,1014.87
2018-10-09T04:10:12.991Z,1014.89
2018-10-09T04:10:39.121Z,1014.88
2018-10-09T04:11:05.248Z,1014.87
2018-10-09T04:11:31.400Z,1014.86
2018-10-09T04:11:57.526Z,1014.91
2018-10-09T04:12:23.660Z,1014.89
2018-10-09T04:12:49.920Z,1014.87
2018-10-09T04:13:15.937Z,1014.89
2018-10-09T04:13:42.065Z,1014.91
2018-10-09T04:14:08.193Z,1014.9
2018-10-09T04:14:34.319Z,1014.93
2018-10-09T04:15:00.453Z,1014.92
2018-10-09T04:15:26.581Z,1014.88
2018-10-09T04:15:52.709Z,1014.91
2018-10-09T04:16:18.838Z,1014.9
2018-10-09T04:16:44.984Z,1014.92
2018-10-09T04:17:11.133Z,1014.9
2018-10-09T04:17:37.263Z,1014.86
2018-10-09T04:18:03.396Z,1014.9
2018-10-09T04:18:29.535Z,1014.93
2018-10-09T04:18:55.666Z,1014.91
2018-10-09T04:19:21.856Z,1014.9
2018-10-09T04:19:47.912Z,1014.89
2018-10-09T04:20:14.051Z,1014.9
2018-10-09T04:20:40.171Z,1014.91
2018-10-09T04:21:06.320Z,1014.92
2018-10-09T04:21:32.441Z,1014.89
2018-10-09T04:21:58.577Z,1014.95
2018-10-09T04:22:24.708Z,1014.89
2018-10-09T04:22:50.841Z,1014.94
2018-10-09T04:23:16.959Z,1014.87
2018-10-09T04:23:43.091Z,1014.87
2018-10-09T04:24:09.223Z,1014.9
2018-10-09T04:24:35.349Z,1014.89
2018-10-09T04:25:01.478Z,1014.88
2018-10-09T04:25:27.607Z,1014.86
2018-10-09T04:25:53.735Z,1014.88
2018-10-09T04:26:19.863Z,1014.87
2018-10-09T04:26:45.986Z,1014.9
2018-10-09T04:27:12.112Z,1014.88
2018-10-09T04:27:38.247Z,1014.92
2018-10-09T04:28:04.373Z,1014.89
2018-10-09T04:28:30.522Z,1014.93
2018-10-09T04:28:56.701Z,1014.93
2018-10-09T04:29:22.913Z,1014.95
2018-10-09T04:29:49.018Z,1014.94
2018-10-09T04:30:15.149Z,1014.98
2018-10-09T04:30:41.274Z,1014.97
2018-10-09T04:31:07.397Z,1014.97
2018-10-09T04:31:33.522Z,1015.02
2018-10-09T04:31:59.659Z,1015.03
2018-10-09T04:32:25.784Z,1015.04
2018-10-09T04:32:51.935Z,1015.04
2018-10-09T04:33:18.107Z,1015.06
2018-10-09T04:33:44.235Z,1015.01
2018-10-09T04:34:10.364Z,1015.06
2018-10-09T04:34:36.490Z,1015.05
2018-10-09T04:35:02.621Z,1015.07
2018-10-09T04:35:28.876Z,1015.08
2018-10-09T04:35:54.962Z,1015.07
2018-10-09T04:36:21.097Z,1015.03
2018-10-09T04:36:47.240Z,1015.06
2018-10-09T04:37:13.392Z,1015.03
2018-10-09T04:37:39.552Z,1015.07
2018-10-09T04:38:05.677Z,1015.04
2018-10-09T04:38:31.800Z,1015.09
2018-10-09T04:38:57.922Z,1015.06
2018-10-09T04:39:24.068Z,1015.09
2018-10-09T04:39:50.195Z,1015.07
2018-10-09T04:40:16.325Z,1015.1
2018-10-09T04:40:42.455Z,1015.1
2018-10-09T04:41:08.580Z,1015.09
2018-10-09T04:41:34.734Z,1015.09
2018-10-09T04:42:00.880Z,1015.12
2018-10-09T04:42:27.024Z,1015.09
2018-10-09T04:42:53.176Z,1015.14
2018-10-09T04:43:19.310Z,1015.13
2018-10-09T04:43:45.459Z,1015.14
2018-10-09T04:44:11.583Z,1015.15
2018-10-09T04:44:37.714Z,1015.11
2018-10-09T04:45:03.867Z,1015.09
2018-10-09T04:45:30.105Z,1015.08
2018-10-09T04:45:56.155Z,1015.07
2018-10-09T04:46:22.277Z,1015.04
2018-10-09T04:46:48.409Z,1015.1
2018-10-09T04:47:14.537Z,1015.1
2018-10-09T04:47:40.666Z,1015.07
2018-10-09T04:48:06.794Z,1015.07
2018-10-09T04:48:32.943Z,1015.09
2018-10-09T04:48:59.073Z,1015.06
2018-10-09T04:49:25.215Z,1015.06
2018-10-09T04:49:51.325Z,1015.11
2018-10-09T04:50:17.450Z,1015.07
2018-10-09T04:50:43.588Z,1015.1
2018-10-09T04:51:09.759Z,1015.06
2018-10-09T04:51:35.885Z,1015.05
2018-10-09T04:52:02.012Z,1015.08
2018-10-09T04:52:28.141Z,1015.06
2018-10-09T04:52:54.350Z,1015.06
2018-10-09T04:53:20.472Z,1015.05
2018-10-09T04:53:46.618Z,1015.07
2018-10-09T04:54:12.750Z,1015.07
2018-10-09T04:54:38.879Z,1015.05
2018-10-09T04:55:05.028Z,1015.07
2018-10-09T04:55:31.165Z,1015.08
2018-10-09T04:55:57.284Z,1015.1
2018-10-09T04:56:23.407Z,1015.05
2018-10-09T04:56:49.539Z,1015.09
2018-10-09T04:57:15.659Z,1015.06
2018-10-09T04:57:41.836Z,1015.08
2018-10-09T04:58:07.957Z,1015.1
2018-10-09T04:58:34.104Z,1015.1
2018-10-09T04:59:00.230Z,1015.1
2018-10-09T04:59:26.400Z,1015.05
2018-10-09T04:59:52.556Z,1015.09
2018-10-09T05:00:18.707Z,1015.1
2018-10-09T05:00:44.929Z,1015.11
2018-10-09T05:01:10.983Z,1015.07
2018-10-09T05:01:37.112Z,1015.08
2018-10-09T05:02:03.238Z,1015.06
2018-10-09T05:02:29.394Z,1015.06
2018-10-09T05:02:55.521Z,1015.07
2018-10-09T05:03:21.667Z,1015.07
2018-10-09T05:03:47.806Z,1015.04
2018-10-09T05:04:13.950Z,1015.04
2018-10-09T05:04:40.074Z,1015.08
2018-10-09T05:05:06.209Z,1015.06
2018-10-09T05:05:32.336Z,1015.05
2018-10-09T05:05:58.509Z,1015.06
2018-10-09T05:06:24.610Z,1015.06
2018-10-09T05:06:50.744Z,1015.09
2018-10-09T05:07:16.891Z,1015.08
2018-10-09T05:07:43.021Z,1015.11
2018-10-09T05:08:09.145Z,1015.09
2018-10-09T05:08:35.277Z,1015.12
2018-10-09T05:09:01.409Z,1015.13
2018-10-09T05:09:27.548Z,1015.11
2018-10-09T05:09:53.684Z,1015.17
2018-10-09T05:10:19.804Z,1015.17
2018-10-09T05:10:45.933Z,1015.15
2018-10-09T05:11:12.085Z,1015.16
2018-10-09T05:11:38.216Z,1015.17
2018-10-09T05:12:04.347Z,1015.17
2018-10-09T05:12:30.481Z,1015.16
2018-10-09T05:12:56.611Z,1015.2
2018-10-09T05:13:22.756Z,1015.16
2018-10-09T05:13:48.905Z,1015.18
2018-10-09T05:14:15.059Z,1015.17
2018-10-09T05:14:41.181Z,1015.17
2018-10-09T05:15:07.308Z,1015.14
2018-10-09T05:15:33.460Z,1015.17
2018-10-09T05:15:59.604Z,1015.19
2018-10-09T05:16:25.733Z,1015.14
2018-10-09T05:16:51.867Z,1015.13
2018-10-09T05:17:17.991Z,1015.12